Time;durP1;ratioP1;P1;durP2;ratioP2;P2;SDS_P1;SDS_P2;PMS_P1;PMS_P2;Temp;Humidity;BMP_temperature;BMP_pressure;BME280_temperature;BME280_humidity;BME280_pressure;Samples;Min_cycle;Max_cycle;Signal;HPM_P1;HPM_P2
2021/12/30 00:00:03;;;;;;;;;;;;;;;3.03;100.00;97784.47;1760704;80;24950;-83
2021/12/30 00:02:32;;;;;;;;;;;;;;;3.07;100.00;97782.09;1759729;80;20188;-82
2021/12/30 00:04:59;;;;;;;;;;;;;;;3.13;100.00;97786.12;1765089;80;25941;-83
2021/12/30 00:07:25;;;;;;;;;;;;;;;3.12;100.00;97786.58;1761558;80;24418;-83
2021/12/30 00:09:51;;;;;;;;;;;;;;;3.17;100.00;97788.47;1761853;80;20233;-82
2021/12/30 00:12:17;;;;;;;;;;;;;;;3.17;100.00;97792.80;1753916;80;24754;-82
2021/12/30 00:14:43;;;;;;;;;;;;;;;3.17;100.00;97789.77;1765014;80;21958;-83
2021/12/30 00:17:10;;;;;;;;;;;;;;;3.18;100.00;97796.61;1731184;81;26205;-83
2021/12/30 00:19:36;;;;;;;;;;;;;;;3.13;100.00;97792.59;1766148;80;24478;-83
2021/12/30 00:22:02;;;;;;;;;;;;;;;3.10;100.00;97796.18;1767887;80;20227;-83
2021/12/30 00:24:28;;;;;;;;;;;;;;;3.09;100.00;97795.80;1760384;80;24876;-82
2021/12/30 00:26:59;;;;;;;;;;;;;;;3.08;100.00;97794.12;1751811;80;21977;-83
2021/12/30 00:29:24;;;;;;;;;;;;;;;3.10;100.00;97797.47;1753860;81;26165;-83
2021/12/30 00:31:50;;;;;;;;;;;;;;;3.15;100.00;97798.08;1763393;80;24437;-83
2021/12/30 00:34:16;;;;;;;;;;;;;;;3.17;100.00;97794.09;1767045;80;20214;-83
2021/12/30 00:36:42;;;;;;;;;;;;;;;3.15;100.00;97799.82;1755498;81;24904;-82
2021/12/30 00:39:09;;;;;;;;;;;;;;;3.12;100.00;97801.25;1765096;80;21904;-83
2021/12/30 00:41:35;;;;;;;;;;;;;;;3.16;100.00;97807.51;1728426;81;25910;-83
2021/12/30 00:44:01;;;;;;;;;;;;;;;3.19;100.00;97807.80;1759495;81;24376;-83
2021/12/30 00:46:27;;;;;;;;;;;;;;;3.18;100.00;97806.11;1753236;80;20297;-83
2021/12/30 00:48:53;;;;;;;;;;;;;;;3.19;100.00;97806.50;1765895;79;24808;-83
2021/12/30 00:51:19;;;;;;;;;;;;;;;3.20;100.00;97805.59;1779736;79;21986;-83
2021/12/30 00:53:46;;;;;;;;;;;;;;;3.23;100.00;97811.89;1784888;79;26053;-82
2021/12/30 00:56:12;;;;;;;;;;;;;;;3.24;100.00;97814.41;1780139;79;24412;-83
2021/12/30 00:58:42;;;;;;;;;;;;;;;3.22;100.00;97814.09;1777126;79;20479;-83
2021/12/30 01:01:08;;;;;;;;;;;;;;;3.22;100.00;97810.21;1786683;79;24834;-83
2021/12/30 01:03:34;;;;;;;;;;;;;;;3.22;100.00;97808.91;1785268;79;22197;-83
2021/12/30 01:06:00;;;;;;;;;;;;;;;3.24;100.00;97810.98;1777535;79;26179;-83
2021/12/30 01:08:28;;;;;;;;;;;;;;;3.21;100.00;97813.28;1785393;79;24489;-82
2021/12/30 01:10:54;;;;;;;;;;;;;;;3.20;100.00;97814.64;1773010;79;20216;-83
2021/12/30 01:13:25;;;;;;;;;;;;;;;3.18;100.00;97812.58;1779183;79;24738;-83
2021/12/30 01:16:03;;;;;;;;;;;;;;;3.13;100.00;97807.64;1783199;79;22846;-83
2021/12/30 01:18:39;;;;;;;;;;;;;;;3.14;100.00;97808.48;1788619;79;26097;-83
2021/12/30 01:20:58;;;;;;;;;;;;;;;3.13;100.00;97809.39;1783253;78;24598;-83
2021/12/30 01:23:27;;;;;;;;;;;;;;;3.08;100.00;97810.08;1785711;79;20238;-83
2021/12/30 01:25:55;;;;;;;;;;;;;;;3.06;100.00;97804.13;1711922;82;24971;-82
2021/12/30 01:28:22;;;;;;;;;;;;;;;3.04;100.00;97809.86;1759337;81;22102;-84
2021/12/30 01:30:48;;;;;;;;;;;;;;;3.06;100.00;97809.31;1757482;81;25958;-83
2021/12/30 01:33:15;;;;;;;;;;;;;;;3.08;100.00;97816.09;1720237;81;24336;-83
2021/12/30 01:35:46;;;;;;;;;;;;;;;3.08;100.00;97823.84;1756835;81;20221;-83
2021/12/30 01:38:12;;;;;;;;;;;;;;;3.07;100.00;97823.45;1755962;81;25477;-84
2021/12/30 01:40:37;;;;;;;;;;;;;;;3.09;100.00;97820.34;1755182;80;21763;-84
2021/12/30 01:43:03;;;;;;;;;;;;;;;3.16;100.00;97823.47;1756489;81;26146;-83
2021/12/30 01:45:29;;;;;;;;;;;;;;;3.15;100.00;97823.92;1759056;81;24419;-83
2021/12/30 01:47:57;;;;;;;;;;;;;;;3.16;100.00;97829.48;1758925;81;20203;-84
2021/12/30 01:50:24;;;;;;;;;;;;;;;3.19;100.00;97828.48;1761701;81;25445;-84
2021/12/30 01:52:51;;;;;;;;;;;;;;;3.21;100.00;97829.25;1760219;81;22322;-83
2021/12/30 01:55:18;;;;;;;;;;;;;;;3.21;100.00;97826.66;1758591;81;26052;-84
2021/12/30 01:57:46;;;;;;;;;;;;;;;3.22;100.00;97830.89;1758858;81;24450;-84
2021/12/30 02:00:17;;;;;;;;;;;;;;;3.21;100.00;97825.37;1761069;81;20440;-84
2021/12/30 02:02:48;;;;;;;;;;;;;;;3.20;100.00;97815.94;1760597;81;24847;-84
2021/12/30 02:05:12;;;;;;;;;;;;;;;3.21;100.00;97821.49;1757165;81;22302;-84
2021/12/30 02:07:38;;;;;;;;;;;;;;;3.23;100.00;97819.19;1760013;81;26095;-84
2021/12/30 02:10:05;;;;;;;;;;;;;;;3.23;100.00;97810.14;1757936;81;24402;-83
2021/12/30 02:12:33;;;;;;;;;;;;;;;3.20;100.00;97803.01;1762945;81;20268;-84
2021/12/30 02:14:59;;;;;;;;;;;;;;;3.24;100.00;97809.23;1754778;81;24533;-84
2021/12/30 02:17:26;;;;;;;;;;;;;;;3.26;100.00;97800.11;1757712;81;22188;-84
2021/12/30 02:19:53;;;;;;;;;;;;;;;3.26;100.00;97803.55;1758610;81;26059;-84
2021/12/30 02:22:20;;;;;;;;;;;;;;;3.28;100.00;97815.08;1755003;81;25158;-85
2021/12/30 02:24:46;;;;;;;;;;;;;;;3.31;100.00;97812.35;1757133;80;20482;-85
2021/12/30 02:27:12;;;;;;;;;;;;;;;3.35;100.00;97810.82;1759090;81;24732;-85
2021/12/30 02:29:40;;;;;;;;;;;;;;;3.41;100.00;97812.26;1758078;81;22039;-84
2021/12/30 02:32:09;;;;;;;;;;;;;;;3.47;100.00;97811.95;1755228;81;25886;-85
2021/12/30 02:34:38;;;;;;;;;;;;;;;3.52;100.00;97808.66;1759327;81;24481;-85
2021/12/30 02:37:03;;;;;;;;;;;;;;;3.53;100.00;97812.93;1762867;81;20269;-85
2021/12/30 02:39:30;;;;;;;;;;;;;;;3.53;100.00;97810.34;1756360;81;24849;-84
2021/12/30 02:41:56;;;;;;;;;;;;;;;3.54;100.00;97813.31;1702919;82;21990;-85
2021/12/30 02:44:23;;;;;;;;;;;;;;;3.54;100.00;97821.08;1760401;81;26073;-85
2021/12/30 02:46:55;;;;;;;;;;;;;;;3.57;100.00;97826.53;1756223;80;24424;-85
2021/12/30 02:49:21;;;;;;;;;;;;;;;3.59;100.00;97824.72;1754596;80;20206;-85
2021/12/30 02:51:48;;;;;;;;;;;;;;;3.61;100.00;97826.29;1751692;81;25575;-84
2021/12/30 02:54:15;;;;;;;;;;;;;;;3.60;100.00;97827.69;1748225;81;22890;-85
2021/12/30 02:56:46;;;;;;;;;;;;;;;3.62;100.00;97827.13;1750209;81;25966;-85
2021/12/30 02:59:09;;;;;;;;;;;;;;;3.61;100.00;97825.45;1754686;81;24457;-84
2021/12/30 03:01:38;;;;;;;;;;;;;;;3.62;100.00;97833.14;1754993;81;20198;-85
2021/12/30 03:04:04;;;;;;;;;;;;;;;3.64;100.00;97837.79;1751474;81;25573;-84
2021/12/30 03:06:31;;;;;;;;;;;;;;;3.64;100.00;97837.79;1746511;81;22113;-84
2021/12/30 03:08:58;;;;;;;;;;;;;;;3.64;100.00;97831.78;1750017;81;25980;-89
2021/12/30 03:11:25;;;;;;;;;;;;;;;3.63;100.00;97836.57;1742978;81;24651;-89
2021/12/30 03:13:53;;;;;;;;;;;;;;;3.64;100.00;97835.20;1750872;80;20186;-90
2021/12/30 03:16:21;;;;;;;;;;;;;;;3.65;100.00;97834.75;1733541;81;25361;-90
2021/12/30 03:18:49;;;;;;;;;;;;;;;3.64;100.00;97844.72;1738531;81;22593;-89
2021/12/30 03:21:20;;;;;;;;;;;;;;;3.66;100.00;97854.05;1735038;81;25986;-89
2021/12/30 03:23:47;;;;;;;;;;;;;;;3.67;100.00;97858.77;1737987;81;24442;-89
2021/12/30 03:26:13;;;;;;;;;;;;;;;3.67;100.00;97862.20;1734170;81;20566;-88
2021/12/30 03:28:40;;;;;;;;;;;;;;;3.68;100.00;97870.80;1758415;80;24720;-88
2021/12/30 03:31:08;;;;;;;;;;;;;;;3.68;100.00;97866.92;1747590;81;22128;-88
2021/12/30 03:33:36;;;;;;;;;;;;;;;3.69;100.00;97864.72;1744631;81;26594;-88
2021/12/30 03:36:10;;;;;;;;;;;;;;;3.71;100.00;97858.98;1756486;80;23879;-88
2021/12/30 03:38:37;;;;;;;;;;;;;;;3.70;100.00;97865.10;1755185;81;20147;-88
2021/12/30 03:41:05;;;;;;;;;;;;;;;3.71;100.00;97858.53;1761200;80;24753;-88
2021/12/30 03:43:31;;;;;;;;;;;;;;;3.72;100.00;97861.50;1754819;80;22247;-88
2021/12/30 03:45:57;;;;;;;;;;;;;;;3.73;100.00;97861.89;1733850;81;26030;-88
2021/12/30 03:48:24;;;;;;;;;;;;;;;3.76;100.00;97867.37;1741481;81;24376;-88
2021/12/30 03:51:04;;;;;;;;;;;;;;;3.75;100.00;97869.58;1744727;80;20326;-87
2021/12/30 03:53:29;;;;;;;;;;;;;;;3.76;100.00;97862.20;1740182;80;20508;-88
2021/12/30 03:55:55;;;;;;;;;;;;;;;3.74;100.00;97867.91;1719582;81;22634;-88
2021/12/30 03:58:21;;;;;;;;;;;;;;;3.72;100.00;97865.84;1747398;81;26012;-89
2021/12/30 04:00:50;;;;;;;;;;;;;;;3.74;100.00;97870.49;1742439;81;24475;-89
2021/12/30 04:03:22;;;;;;;;;;;;;;;3.73;100.00;97860.59;1748379;81;20486;-89
2021/12/30 04:05:48;;;;;;;;;;;;;;;3.79;100.00;97870.63;1747580;81;25051;-89
2021/12/30 04:08:14;;;;;;;;;;;;;;;3.84;100.00;97881.20;1740128;81;21752;-88
2021/12/30 04:10:40;;;;;;;;;;;;;;;3.87;100.00;97888.82;1754562;80;26039;-87
2021/12/30 04:13:06;;;;;;;;;;;;;;;3.85;100.00;97886.30;1745601;81;24462;-88
2021/12/30 04:15:38;;;;;;;;;;;;;;;3.81;100.00;97890.42;1756391;81;20197;-87
2021/12/30 04:18:05;;;;;;;;;;;;;;;3.79;100.00;97889.20;1745407;80;25778;-88
2021/12/30 04:20:32;;;;;;;;;;;;;;;3.78;100.00;97904.34;1744940;80;22075;-88
2021/12/30 04:22:58;;;;;;;;;;;;;;;3.76;100.00;97905.70;1746724;81;25932;-88
2021/12/30 04:25:24;;;;;;;;;;;;;;;3.73;100.00;97907.63;1752316;80;24523;-88
2021/12/30 04:27:50;;;;;;;;;;;;;;;3.77;100.00;97906.09;1742908;81;20267;-88
2021/12/30 04:30:16;;;;;;;;;;;;;;;3.83;100.00;97911.87;1750476;81;24779;-88
2021/12/30 04:32:42;;;;;;;;;;;;;;;3.87;100.00;97912.11;1746788;81;21949;-87
2021/12/30 04:35:09;;;;;;;;;;;;;;;3.91;100.00;97917.05;1751470;81;26068;-87
2021/12/30 04:37:36;;;;;;;;;;;;;;;3.95;100.00;97919.02;1740869;81;24403;-87
2021/12/30 04:40:06;;;;;;;;;;;;;;;4.02;100.00;97922.52;1748449;81;20174;-87
2021/12/30 04:42:32;;;;;;;;;;;;;;;4.06;100.00;97914.12;1740321;81;24910;-88
2021/12/30 04:44:58;;;;;;;;;;;;;;;4.07;100.00;97913.20;1749313;81;22040;-88
2021/12/30 04:47:25;;;;;;;;;;;;;;;4.10;100.00;97913.88;1749956;80;25953;-88
2021/12/30 04:49:55;;;;;;;;;;;;;;;4.12;100.00;97909.91;1699759;81;20383;-88
2021/12/30 04:52:20;;;;;;;;;;;;;;;4.11;100.00;97907.78;1704727;82;20223;-88
2021/12/30 04:54:47;;;;;;;;;;;;;;;4.09;100.00;97912.20;1756913;80;25004;-88
2021/12/30 04:57:13;;;;;;;;;;;;;;;4.03;100.00;97907.82;1760329;80;21986;-88
2021/12/30 04:59:39;;;;;;;;;;;;;;;4.01;100.00;97919.54;1753613;80;25967;-88
2021/12/30 05:02:05;;;;;;;;;;;;;;;4.00;100.00;97925.63;1761330;80;24503;-88
2021/12/30 05:04:35;;;;;;;;;;;;;;;4.00;100.00;97927.37;1762983;80;20291;-88
2021/12/30 05:07:01;;;;;;;;;;;;;;;3.98;100.00;97928.73;1760441;80;24844;-88
2021/12/30 05:09:27;;;;;;;;;;;;;;;3.99;100.00;97939.48;1764679;80;21952;-88
2021/12/30 05:11:54;;;;;;;;;;;;;;;4.00;100.00;97945.50;1732651;80;26033;-88
2021/12/30 05:14:21;;;;;;;;;;;;;;;3.99;100.00;97949.84;1764493;80;24512;-88
2021/12/30 05:16:47;;;;;;;;;;;;;;;4.00;100.00;97966.20;1764957;80;20255;-88
2021/12/30 05:19:13;;;;;;;;;;;;;;;4.01;100.00;97976.95;1754723;80;24663;-88
2021/12/30 05:21:39;;;;;;;;;;;;;;;4.02;100.00;97971.70;1757833;80;21983;-88
2021/12/30 05:24:05;;;;;;;;;;;;;;;4.05;100.00;97965.52;1750888;80;25945;-88
2021/12/30 05:26:31;;;;;;;;;;;;;;;4.02;100.00;97958.76;1759690;80;24496;-87
2021/12/30 05:28:58;;;;;;;;;;;;;;;4.01;100.00;97963.55;1766465;80;20221;-88
2021/12/30 05:31:25;;;;;;;;;;;;;;;3.98;100.00;97967.57;1764886;80;24786;-88
2021/12/30 05:33:51;;;;;;;;;;;;;;;3.97;100.00;97966.37;1757620;80;21926;-88
2021/12/30 05:36:17;;;;;;;;;;;;;;;3.99;100.00;97967.12;1761218;80;25977;-87
2021/12/30 05:38:44;;;;;;;;;;;;;;;4.00;100.00;97966.20;1762715;80;24499;-88
2021/12/30 05:41:10;;;;;;;;;;;;;;;4.02;100.00;97964.39;1759552;80;20297;-88
2021/12/30 05:43:36;;;;;;;;;;;;;;;3.99;100.00;97960.64;1761407;80;24871;-88
2021/12/30 05:46:02;;;;;;;;;;;;;;;4.04;100.00;97958.20;1766975;80;22019;-88
2021/12/30 05:48:28;;;;;;;;;;;;;;;4.09;100.00;97958.80;1760476;80;25923;-89
2021/12/30 05:50:59;;;;;;;;;;;;;;;4.08;100.00;97970.09;1756050;80;24420;-88
2021/12/30 05:53:24;;;;;;;;;;;;;;;4.10;100.00;97976.02;1746269;81;20201;-88
2021/12/30 05:55:50;;;;;;;;;;;;;;;4.12;100.00;97983.72;1756062;81;24800;-88
2021/12/30 05:58:16;;;;;;;;;;;;;;;4.14;100.00;97981.44;1746608;81;22150;-89
2021/12/30 06:00:44;;;;;;;;;;;;;;;4.11;100.00;97982.88;1756864;81;27363;-88
2021/12/30 06:03:10;;;;;;;;;;;;;;;4.10;100.00;97983.78;1760115;81;24544;-88
2021/12/30 06:05:36;;;;;;;;;;;;;;;4.04;100.00;97971.14;1756055;81;20237;-89
2021/12/30 06:08:02;;;;;;;;;;;;;;;4.03;100.00;97977.72;1753529;81;25491;-89
2021/12/30 06:10:33;;;;;;;;;;;;;;;4.04;100.00;97974.19;1756900;81;21928;-88
2021/12/30 06:12:56;;;;;;;;;;;;;;;4.00;100.00;97983.03;1764474;81;26786;-88
2021/12/30 06:15:22;;;;;;;;;;;;;;;4.02;100.00;97985.10;1738739;81;25593;-89
2021/12/30 06:17:48;;;;;;;;;;;;;;;4.04;100.00;97978.91;1758487;81;20235;-89
2021/12/30 06:20:15;;;;;;;;;;;;;;;4.00;100.00;97980.45;1752959;81;24723;-88
2021/12/30 06:22:44;;;;;;;;;;;;;;;3.96;100.00;97988.84;1745422;81;21777;-89
2021/12/30 06:25:11;;;;;;;;;;;;;;;3.95;100.00;98002.69;1753499;81;26037;-89
2021/12/30 06:27:43;;;;;;;;;;;;;;;3.99;100.00;98009.83;1758750;81;24438;-89
2021/12/30 06:30:09;;;;;;;;;;;;;;;3.98;100.00;98001.71;1757828;81;20497;-88
2021/12/30 06:32:36;;;;;;;;;;;;;;;4.04;100.00;98015.16;1758821;81;25482;-88
2021/12/30 06:35:02;;;;;;;;;;;;;;;4.08;100.00;98006.34;1752591;81;21998;-88
2021/12/30 06:37:29;;;;;;;;;;;;;;;4.15;100.00;98015.91;1761523;81;26024;-88
2021/12/30 06:39:55;;;;;;;;;;;;;;;4.20;100.00;98019.10;1685113;84;24467;-87
2021/12/30 06:42:21;;;;;;;;;;;;;;;4.14;100.00;98018.14;1685946;85;20259;-88
2021/12/30 06:44:47;;;;;;;;;;;;;;;4.15;100.00;98015.91;1758872;81;24746;-88
2021/12/30 06:47:13;;;;;;;;;;;;;;;4.13;100.00;98014.72;1759911;81;22035;-88
2021/12/30 06:49:39;;;;;;;;;;;;;;;4.14;100.00;98020.73;1749228;79;26023;-87
2021/12/30 06:52:07;;;;;;;;;;;;;;;4.14;100.00;98021.58;1741673;81;24509;-87
2021/12/30 06:54:35;;;;;;;;;;;;;;;4.17;100.00;98019.27;1715338;81;20462;-88
2021/12/30 06:57:03;;;;;;;;;;;;;;;4.18;100.00;98009.30;1742536;81;24865;-89
2021/12/30 06:59:30;;;;;;;;;;;;;;;4.16;100.00;98004.64;1738702;81;21994;-89
2021/12/30 07:01:57;;;;;;;;;;;;;;;4.16;100.00;98002.05;1742868;80;25984;-89
2021/12/30 07:04:25;;;;;;;;;;;;;;;4.18;100.00;98004.12;1745361;81;25475;-88
2021/12/30 07:06:52;;;;;;;;;;;;;;;4.19;100.00;98016.16;1739296;81;20212;-88
2021/12/30 07:09:19;;;;;;;;;;;;;;;4.21;100.00;98014.30;1736823;81;24781;-88
2021/12/30 07:11:51;;;;;;;;;;;;;;;4.17;100.00;98005.87;1742120;81;22039;-88
2021/12/30 07:14:18;;;;;;;;;;;;;;;4.20;100.00;98013.92;1746885;81;26006;-88
2021/12/30 07:16:44;;;;;;;;;;;;;;;4.22;100.00;98015.98;1745949;80;24434;-88
2021/12/30 07:19:11;;;;;;;;;;;;;;;4.23;100.00;98024.14;1743586;80;20246;-88
2021/12/30 07:21:37;;;;;;;;;;;;;;;4.32;100.00;98026.25;1739644;81;24967;-88
2021/12/30 07:24:04;;;;;;;;;;;;;;;4.35;100.00;98028.70;1741474;81;22778;-88
2021/12/30 07:26:30;;;;;;;;;;;;;;;4.40;100.00;98033.64;1742750;81;26077;-88
2021/12/30 07:28:56;;;;;;;;;;;;;;;4.47;100.00;98028.05;1742432;81;24490;-88
2021/12/30 07:31:22;;;;;;;;;;;;;;;4.48;100.00;98033.61;1744232;81;20275;-88
2021/12/30 07:33:48;;;;;;;;;;;;;;;4.52;100.00;98028.67;1743239;81;24924;-89
2021/12/30 07:36:14;;;;;;;;;;;;;;;4.57;100.00;98034.91;1744644;81;22024;-89
2021/12/30 07:38:44;;;;;;;;;;;;;;;4.60;100.00;98043.80;1751961;81;26089;-87
2021/12/30 07:41:10;;;;;;;;;;;;;;;4.64;100.00;98051.79;1743199;81;25321;-87
2021/12/30 07:43:36;;;;;;;;;;;;;;;4.69;100.00;98056.27;1747999;81;20204;-87
2021/12/30 07:46:02;;;;;;;;;;;;;;;4.72;100.00;98056.59;1747200;81;24807;-87
2021/12/30 07:48:28;;;;;;;;;;;;;;;4.71;100.00;98048.42;1739516;81;21980;-87
2021/12/30 07:50:54;;;;;;;;;;;;;;;4.73;100.00;98049.20;1748286;79;26029;-87
2021/12/30 07:53:20;;;;;;;;;;;;;;;4.72;100.00;98058.72;1756005;81;20252;-87
2021/12/30 07:55:49;;;;;;;;;;;;;;;4.76;100.00;98066.70;1750396;81;20218;-87
2021/12/30 07:58:16;;;;;;;;;;;;;;;4.78;100.00;98073.12;1755389;81;24727;-87
2021/12/30 08:00:42;;;;;;;;;;;;;;;4.81;100.00;98069.89;1753383;81;21926;-87
2021/12/30 08:03:08;;;;;;;;;;;;;;;4.80;100.00;98068.22;1752425;81;25938;-87
2021/12/30 08:05:34;;;;;;;;;;;;;;;4.80;100.00;98063.52;1757611;81;24491;-87
2021/12/30 08:08:00;;;;;;;;;;;;;;;4.81;100.00;98066.00;1737141;81;20301;-87
2021/12/30 08:10:28;;;;;;;;;;;;;;;4.84;100.00;98055.95;1756097;81;24939;-86
2021/12/30 08:12:54;;;;;;;;;;;;;;;4.89;100.00;98062.56;1755035;81;22128;-87
2021/12/30 08:15:21;;;;;;;;;;;;;;;4.91;100.00;98063.30;1752753;81;25984;-87
2021/12/30 08:17:47;;;;;;;;;;;;;;;4.99;100.00;98070.69;1742682;81;24483;-87
2021/12/30 08:20:14;;;;;;;;;;;;;;;5.02;100.00;98071.80;1778567;79;20286;-87
2021/12/30 08:22:41;;;;;;;;;;;;;;;5.05;100.00;98072.95;1778266;79;24803;-87
2021/12/30 08:25:10;;;;;;;;;;;;;;;5.11;100.00;98079.57;1760001;79;20207;-87
2021/12/30 08:27:36;;;;;;;;;;;;;;;5.14;100.00;98082.83;1784043;78;26012;-87
2021/12/30 08:30:03;;;;;;;;;;;;;;;5.16;100.00;98084.89;1776286;79;24477;-87
2021/12/30 08:32:30;;;;;;;;;;;;;;;5.19;100.00;98092.95;1785408;79;20257;-87
2021/12/30 08:34:56;;;;;;;;;;;;;;;5.18;100.00;98092.60;1779017;78;24821;-87
2021/12/30 08:37:22;;;;;;;;;;;;;;;5.18;100.00;98099.08;1780010;78;21933;-87
2021/12/30 08:39:48;;;;;;;;;;;;;;;5.18;100.00;98108.16;1774869;79;26023;-87
2021/12/30 08:42:25;;;;;;;;;;;;;;;5.15;100.00;98107.85;1779749;78;24437;-87
2021/12/30 08:44:52;;;;;;;;;;;;;;;5.16;100.00;98107.40;1779294;79;20237;-87
2021/12/30 08:47:18;;;;;;;;;;;;;;;5.15;100.00;98113.50;1775298;78;25439;-87
2021/12/30 08:49:46;;;;;;;;;;;;;;;5.14;100.00;98111.81;1784770;79;22038;-87
2021/12/30 08:52:17;;;;;;;;;;;;;;;5.12;100.00;98112.38;1782724;78;25991;-88
2021/12/30 08:54:47;;;;;;;;;;;;;;;5.13;100.00;98101.09;1778503;79;25178;-88
2021/12/30 08:57:14;;;;;;;;;;;;;;;5.08;100.00;98101.30;1775889;79;20135;-87
2021/12/30 08:59:40;;;;;;;;;;;;;;;5.09;100.00;98107.33;1778903;78;24881;-87
2021/12/30 09:02:07;;;;;;;;;;;;;;;5.08;100.00;98110.38;1777174;79;22055;-87
2021/12/30 09:04:33;;;;;;;;;;;;;;;5.02;100.00;98110.70;1777297;79;26021;-87
2021/12/30 09:07:00;;;;;;;;;;;;;;;5.04;100.00;98115.36;1779662;78;25193;-87
2021/12/30 09:09:29;;;;;;;;;;;;;;;5.07;100.00;98119.56;1776378;79;20229;-87
2021/12/30 09:11:54;;;;;;;;;;;;;;;5.07;100.00;98116.97;1787439;79;24975;-87
2021/12/30 09:14:21;;;;;;;;;;;;;;;5.04;100.00;98124.44;1773451;79;22071;-87
2021/12/30 09:16:51;;;;;;;;;;;;;;;5.08;100.00;98126.40;1788757;79;25926;-87
2021/12/30 09:19:15;;;;;;;;;;;;;;;5.08;100.00;98116.02;1786739;79;24651;-87
2021/12/30 09:21:43;;;;;;;;;;;;;;;5.07;100.00;98113.92;1777425;79;20168;-87
2021/12/30 09:24:09;;;;;;;;;;;;;;;5.07;100.00;98119.11;1778024;78;24862;-87
2021/12/30 09:26:35;;;;;;;;;;;;;;;5.08;100.00;98118.63;1772564;79;22075;-87
2021/12/30 09:29:10;;;;;;;;;;;;;;;5.09;100.00;98113.81;1781253;79;25998;-88
2021/12/30 09:31:30;;;;;;;;;;;;;;;5.10;100.00;98120.23;1777009;79;24590;-87
2021/12/30 09:33:59;;;;;;;;;;;;;;;5.12;100.00;98118.86;1776938;79;20191;-87
2021/12/30 09:36:28;;;;;;;;;;;;;;;5.11;100.00;98115.88;1789490;78;24811;-87
2021/12/30 09:38:53;;;;;;;;;;;;;;;5.10;100.00;98112.91;1773845;79;21963;-87
2021/12/30 09:41:19;;;;;;;;;;;;;;;5.09;100.00;98107.33;1788105;79;26010;-87
2021/12/30 09:43:45;;;;;;;;;;;;;;;5.08;100.00;98104.36;1778575;79;24479;-87
2021/12/30 09:46:13;;;;;;;;;;;;;;;5.03;100.00;98095.53;1756890;79;20201;-87
2021/12/30 09:48:39;;;;;;;;;;;;;;;4.99;100.00;98095.32;1775941;79;24819;-87
2021/12/30 09:51:07;;;;;;;;;;;;;;;4.98;100.00;98095.78;1774415;79;21944;-87
2021/12/30 09:53:33;;;;;;;;;;;;;;;4.97;100.00;98088.07;1804452;78;26076;-87
2021/12/30 09:55:59;;;;;;;;;;;;;;;4.99;100.00;98092.73;1793039;78;24523;-87
2021/12/30 09:58:26;;;;;;;;;;;;;;;5.02;100.00;98099.88;1792707;79;20207;-86
2021/12/30 10:00:52;;;;;;;;;;;;;;;5.04;100.00;98104.98;1788539;79;25338;-87
2021/12/30 10:03:19;;;;;;;;;;;;;;;5.05;100.00;98101.03;1782683;79;21987;-87
2021/12/30 10:05:45;;;;;;;;;;;;;;;5.05;100.00;98110.10;1790612;79;26623;-87
2021/12/30 10:08:13;;;;;;;;;;;;;;;5.09;100.00;98109.92;1784725;79;24385;-90
2021/12/30 10:10:40;;;;;;;;;;;;;;;5.09;100.00;98109.47;1790189;79;20304;-88
2021/12/30 10:13:16;;;;;;;;;;;;;;;5.11;100.00;98108.94;1796790;79;25448;-87
2021/12/30 10:15:50;;;;;;;;;;;;;;;5.13;100.00;98113.57;1785531;79;21595;-87
2021/12/30 10:18:18;;;;;;;;;;;;;;;5.12;100.00;98110.63;1795552;79;25943;-88
2021/12/30 10:20:48;;;;;;;;;;;;;;;5.13;100.00;98103.69;1799225;79;24408;-87
2021/12/30 10:23:17;;;;;;;;;;;;;;;5.15;100.00;98103.96;1789503;79;20238;-87
2021/12/30 10:25:45;;;;;;;;;;;;;;;5.16;100.00;98105.64;1738238;81;24785;-87
2021/12/30 10:28:19;;;;;;;;;;;;;;;5.18;100.00;98119.37;1742268;81;21997;-87
2021/12/30 10:30:47;;;;;;;;;;;;;;;5.20;100.00;98124.01;1740854;81;26691;-87
2021/12/30 10:33:17;;;;;;;;;;;;;;;5.21;100.00;98134.77;1747160;81;24500;-87
2021/12/30 10:35:44;;;;;;;;;;;;;;;5.24;100.00;98139.78;1745008;81;20284;-87
2021/12/30 10:38:11;;;;;;;;;;;;;;;5.24;100.00;98143.67;1756098;81;25002;-86
2021/12/30 10:40:39;;;;;;;;;;;;;;;5.24;100.00;98138.48;1746051;81;21985;-87
2021/12/30 10:43:16;;;;;;;;;;;;;;;5.25;100.00;98131.08;1745552;81;26875;-87
2021/12/30 10:45:41;;;;;;;;;;;;;;;5.29;100.00;98138.27;1746064;81;24663;-87
2021/12/30 10:48:09;;;;;;;;;;;;;;;5.29;100.00;98137.77;1752336;80;20181;-87
2021/12/30 10:50:35;;;;;;;;;;;;;;;5.32;100.00;98145.41;1746021;81;24816;-87
2021/12/30 10:53:01;;;;;;;;;;;;;;;5.35;100.00;98140.50;1740638;81;22051;-87
2021/12/30 10:55:29;;;;;;;;;;;;;;;5.37;100.00;98142.56;1757430;80;26009;-87
2021/12/30 10:57:56;;;;;;;;;;;;;;;5.38;100.00;98139.90;1749846;81;23980;-87
2021/12/30 11:00:27;;;;;;;;;;;;;;;5.42;100.00;98134.91;1750844;80;20222;-87
2021/12/30 11:02:53;;;;;;;;;;;;;;;5.45;100.00;98140.41;1759079;81;24774;-89
2021/12/30 11:05:20;;;;;;;;;;;;;;;5.48;100.00;98141.08;1757606;81;21936;-85
2021/12/30 11:07:47;;;;;;;;;;;;;;;5.51;100.00;98141.35;1759043;81;25934;-86
2021/12/30 11:10:19;;;;;;;;;;;;;;;5.54;100.00;98143.80;1759993;80;24500;-90
2021/12/30 11:12:46;;;;;;;;;;;;;;;5.59;100.00;98143.55;1745621;81;20483;-89
2021/12/30 11:15:19;;;;;;;;;;;;;;;5.63;100.00;98147.18;1755685;81;25651;-87
2021/12/30 11:17:45;;;;;;;;;;;;;;;5.68;100.00;98144.33;1757489;81;22029;-87
2021/12/30 11:20:11;;;;;;;;;;;;;;;5.71;100.00;98143.72;1757278;81;26094;-87
2021/12/30 11:22:39;;;;;;;;;;;;;;;5.75;100.00;98149.57;1756828;81;24490;-86
2021/12/30 11:25:07;;;;;;;;;;;;;;;5.79;100.00;98145.88;1753167;80;20208;-87
2021/12/30 11:27:33;;;;;;;;;;;;;;;5.81;100.00;98146.64;1746291;81;24740;-87
2021/12/30 11:30:01;;;;;;;;;;;;;;;5.86;100.00;98149.81;1758647;81;22205;-87
2021/12/30 11:32:28;;;;;;;;;;;;;;;5.91;100.00;98149.59;1757196;81;25309;-85
2021/12/30 11:34:56;;;;;;;;;;;;;;;5.95;100.00;98157.12;1760793;80;24135;-86
2021/12/30 11:37:23;;;;;;;;;;;;;;;6.03;100.00;98152.81;1751112;81;20570;-87
2021/12/30 11:39:50;;;;;;;;;;;;;;;6.07;100.00;98153.84;1756555;80;24910;-87
2021/12/30 11:42:24;;;;;;;;;;;;;;;6.11;100.00;98138.45;1764471;80;22119;-87
2021/12/30 11:44:51;;;;;;;;;;;;;;;6.19;100.00;98140.63;1759875;80;26060;-87
2021/12/30 11:47:34;;;;;;;;;;;;;;;6.28;100.00;98124.50;1758610;81;24765;-87
2021/12/30 11:50:02;;;;;;;;;;;;;;;6.34;100.00;98115.52;1762102;80;20472;-88
2021/12/30 11:52:46;;;;;;;;;;;;;;;6.43;100.00;98131.44;1729868;82;24819;-87
2021/12/30 11:55:31;;;;;;;;;;;;;;;6.47;100.00;98120.39;1742386;81;22245;-88
2021/12/30 11:57:58;;;;;;;;;;;;;;;6.49;100.00;98113.35;1716769;82;26059;-88
2021/12/30 12:00:32;;;;;;;;;;;;;;;6.50;100.00;98112.40;1747708;81;24627;-87
2021/12/30 12:03:02;;;;;;;;;;;;;;;6.47;100.00;98097.84;1741487;81;20218;-88
2021/12/30 12:05:42;;;;;;;;;;;;;;;6.48;100.00;98107.31;1788579;78;24384;-88
2021/12/30 12:08:09;;;;;;;;;;;;;;;6.50;100.00;98118.90;1785637;78;22053;-88
2021/12/30 12:10:36;;;;;;;;;;;;;;;6.51;100.00;98121.88;1797093;78;26088;-88
2021/12/30 12:13:20;;;;;;;;;;;;;;;6.51;100.00;98123.17;1744424;81;24571;-87
2021/12/30 12:15:47;;;;;;;;;;;;;;;6.52;100.00;98119.20;1796549;78;20220;-87
2021/12/30 12:18:13;;;;;;;;;;;;;;;6.54;100.00;98123.02;1786530;78;24841;-87
2021/12/30 12:20:53;;;;;;;;;;;;;;;6.55;100.00;98122.06;1778060;78;22684;-87
2021/12/30 12:23:21;;;;;;;;;;;;;;;6.57;100.00;98129.32;1790750;78;26744;-88
2021/12/30 12:25:49;;;;;;;;;;;;;;;6.59;100.00;98136.58;1784539;78;24449;-88
2021/12/30 12:28:20;;;;;;;;;;;;;;;6.59;100.00;98146.52;1779058;78;20291;-88
2021/12/30 12:30:48;;;;;;;;;;;;;;;6.61;100.00;98131.65;1788897;78;24842;-88
2021/12/30 12:33:28;;;;;;;;;;;;;;;6.62;100.00;98125.98;1790380;78;22696;-87
2021/12/30 12:35:54;;;;;;;;;;;;;;;6.64;100.00;98138.45;1792871;78;26429;-88
2021/12/30 12:38:37;;;;;;;;;;;;;;;6.65;100.00;98138.36;1787856;78;24410;-87
2021/12/30 12:41:06;;;;;;;;;;;;;;;6.66;100.00;98130.91;1792752;78;20131;-88
2021/12/30 12:43:33;;;;;;;;;;;;;;;6.68;100.00;98126.93;1783563;78;24894;-88
2021/12/30 12:46:00;;;;;;;;;;;;;;;6.72;100.00;98121.91;1790520;78;22047;-88
2021/12/30 12:48:33;;;;;;;;;;;;;;;6.72;100.00;98128.41;1782817;78;26144;-88